Vunisea, Fiji
Current Conditions -  °F | °C
As of 6:00 PM on Thursday 23 Oct 2014 (Local Time) from NFNA Reporting Station
Broken Clouds Broken Clouds  
Wind Chill: 26°   Ceiling: 2200
Heat Index: 28°   Visibility: 6mi
Dew Point: 24°   Wind: 3mph
Humidity: 89%   Direction: 150°SSE
Pressure: 29.85"   Gusts: NA
Location:  19.05°S, 178.17°E
Report Text: NFNA 230600Z 15003KT 9999 BKN022 BKN045 26/24 Q1011
Loading
Personal Weather Stations






























Interactive Weather Map
Tropical Storm Tracking
New forecast layout! Learn more

10-Day Weather Forecast

Advertisements
Track Severe Weather on mobile